createdAt,value
2019-02-04T00:00:52.812Z,15.13
2019-02-04T00:03:35.953Z,18.37
2019-02-04T00:06:06.925Z,15.27
2019-02-04T00:08:37.912Z,15.03
2019-02-04T00:11:09.017Z,20.73
2019-02-04T00:13:40.035Z,20.40
2019-02-04T00:16:11.088Z,11.30
2019-02-04T00:18:42.077Z,10.33
2019-02-04T00:21:13.042Z,13.40
2019-02-04T00:23:44.046Z,18.20
2019-02-04T00:26:15.408Z,18.13
2019-02-04T00:28:46.314Z,17.60
2019-02-04T00:31:17.305Z,23.90
2019-02-04T00:33:48.403Z,20.63
2019-02-04T00:36:19.324Z,15.97
2019-02-04T00:38:50.290Z,12.50
2019-02-04T00:41:21.286Z,12.47
2019-02-04T00:43:52.388Z,14.20
2019-02-04T00:46:23.578Z,9.20
2019-02-04T00:48:54.524Z,18.63
2019-02-04T00:51:25.577Z,19.67
2019-02-04T00:53:56.604Z,10.57
2019-02-04T00:56:27.655Z,20.57
2019-02-04T00:58:58.594Z,15.40
2019-02-04T01:01:29.517Z,12.37
2019-02-04T01:04:00.541Z,16.63
2019-02-04T01:06:31.623Z,16.87
2019-02-04T01:09:02.747Z,13.23
2019-02-04T01:11:33.766Z,8.10
2019-02-04T01:14:04.826Z,11.50
2019-02-04T01:16:35.791Z,19.97
2019-02-04T01:19:06.970Z,15.87
2019-02-04T01:21:38.330Z,7.30
2019-02-04T01:24:09.598Z,18.03
2019-02-04T01:26:40.648Z,13.03
2019-02-04T01:29:11.774Z,13.90
2019-02-04T01:31:42.713Z,9.23
2019-02-04T01:34:14.044Z,11.43
2019-02-04T01:36:45.079Z,25.43
2019-02-04T01:39:16.058Z,11.83
2019-02-04T01:41:47.067Z,10.50
2019-02-04T01:44:18.468Z,9.40
2019-02-04T01:46:51.512Z,13.23
2019-02-04T01:49:22.144Z,14.50
2019-02-04T01:51:53.140Z,15.47
2019-02-04T01:54:24.434Z,13.30
2019-02-04T01:56:55.387Z,21.73
2019-02-04T01:59:26.498Z,17.80
2019-02-04T02:01:57.870Z,15.23
2019-02-04T02:04:28.851Z,14.13
2019-02-04T02:07:00.177Z,11.90
2019-02-04T02:09:31.225Z,13.80
2019-02-04T02:12:02.512Z,15.50
2019-02-04T02:14:33.533Z,10.00
2019-02-04T02:17:04.857Z,14.70
2019-02-04T02:19:35.890Z,17.23
2019-02-04T02:22:06.923Z,17.77
2019-02-04T02:24:38.005Z,13.77
2019-02-04T02:27:08.949Z,13.80
2019-02-04T02:29:39.958Z,19.00
2019-02-04T02:32:11.258Z,14.97
2019-02-04T02:34:42.248Z,16.07
2019-02-04T02:37:13.294Z,17.23
2019-02-04T02:39:44.299Z,17.20
2019-02-04T02:42:15.668Z,13.73
2019-02-04T02:44:46.701Z,20.03
2019-02-04T02:47:17.704Z,15.37
2019-02-04T02:49:48.757Z,16.70
2019-02-04T02:52:19.889Z,20.20
2019-02-04T02:54:51.112Z,17.63
2019-02-04T02:57:22.141Z,20.93
2019-02-04T02:59:53.131Z,15.93
2019-02-04T03:02:24.170Z,18.33
2019-02-04T03:04:55.179Z,16.60
2019-02-04T03:07:26.195Z,22.50
2019-02-04T03:09:57.295Z,22.77
2019-02-04T03:12:28.231Z,19.50
2019-02-04T03:14:59.243Z,20.23
2019-02-04T03:17:31.576Z,24.13
2019-02-04T03:20:02.555Z,23.03
2019-02-04T03:22:33.561Z,33.27
2019-02-04T03:25:05.187Z,17.53
2019-02-04T03:27:36.211Z,28.53
2019-02-04T03:30:16.089Z,20.43
2019-02-04T03:32:47.072Z,24.33
2019-02-04T03:35:18.197Z,25.43
2019-02-04T03:37:52.219Z,23.13
2019-02-04T03:40:25.101Z,24.03
2019-02-04T03:42:56.107Z,23.13
2019-02-04T03:45:27.052Z,18.67
2019-02-04T03:48:06.425Z,22.03
2019-02-04T03:50:30.955Z,33.83
2019-02-04T03:53:01.933Z,20.00
2019-02-04T03:55:32.938Z,22.60
2019-02-04T03:58:03.980Z,20.63
2019-02-04T04:00:37.476Z,17.93
2019-02-04T04:03:09.027Z,32.33
2019-02-04T04:05:40.333Z,21.40
2019-02-04T04:08:11.416Z,26.60
2019-02-04T04:10:42.390Z,23.80
2019-02-04T04:13:13.305Z,31.80
2019-02-04T04:15:44.707Z,26.20
2019-02-04T04:18:16.320Z,27.60
2019-02-04T04:20:47.259Z,22.23
2019-02-04T04:23:18.487Z,20.70
2019-02-04T04:25:49.524Z,23.50
2019-02-04T04:28:20.687Z,25.73
2019-02-04T04:30:51.612Z,25.33
2019-02-04T04:33:22.719Z,23.70
2019-02-04T04:35:53.734Z,23.60
2019-02-04T04:38:24.830Z,25.43
2019-02-04T04:40:55.848Z,22.50
2019-02-04T04:43:26.833Z,24.30
2019-02-04T04:45:57.828Z,29.50
2019-02-04T04:48:29.223Z,23.13
2019-02-04T04:51:00.209Z,29.80
2019-02-04T04:53:31.109Z,26.37
2019-02-04T04:56:02.150Z,26.30
2019-02-04T04:58:33.136Z,20.63
2019-02-04T05:01:04.227Z,24.60
2019-02-04T05:03:35.220Z,21.70
2019-02-04T05:06:06.209Z,21.10
2019-02-04T05:08:37.213Z,28.57
2019-02-04T05:11:08.261Z,30.13
2019-02-04T05:13:39.452Z,25.73
2019-02-04T05:16:10.783Z,26.80
2019-02-04T05:18:41.860Z,27.83
2019-02-04T05:21:12.789Z,27.57
2019-02-04T05:23:43.793Z,26.47
2019-02-04T05:26:14.836Z,23.40
2019-02-04T05:28:46.907Z,29.20
2019-02-04T05:31:18.162Z,31.80
2019-02-04T05:33:49.247Z,25.53
2019-02-04T05:36:20.287Z,28.10
2019-02-04T05:38:51.548Z,28.40
2019-02-04T05:41:23.816Z,32.57
2019-02-04T05:43:55.120Z,28.03
2019-02-04T05:46:26.156Z,33.00
2019-02-04T05:48:57.353Z,32.70
2019-02-04T05:51:28.639Z,33.37
2019-02-04T05:53:59.730Z,42.43
2019-02-04T05:56:30.709Z,28.63
2019-02-04T05:59:01.712Z,30.57
2019-02-04T06:01:32.959Z,32.57
2019-02-04T06:04:03.946Z,24.47
2019-02-04T06:06:34.853Z,30.23
2019-02-04T06:09:08.632Z,26.20
2019-02-04T06:11:39.607Z,26.63
2019-02-04T06:14:10.569Z,35.33
2019-02-04T06:16:42.178Z,33.03
2019-02-04T06:19:13.142Z,31.33
2019-02-04T06:21:44.429Z,27.73
2019-02-04T06:24:15.421Z,38.73
2019-02-04T06:26:46.390Z,33.27
2019-02-04T06:29:17.278Z,33.37
2019-02-04T06:31:48.291Z,34.93
2019-02-04T06:34:19.599Z,38.23
2019-02-04T06:36:50.518Z,30.17
2019-02-04T06:39:21.557Z,29.47
2019-02-04T06:41:52.872Z,34.27
2019-02-04T06:44:23.822Z,31.60
2019-02-04T06:46:54.849Z,34.47
2019-02-04T06:49:25.754Z,35.20
2019-02-04T06:51:56.668Z,31.90
2019-02-04T06:54:27.771Z,36.77
2019-02-04T06:56:58.733Z,37.23
2019-02-04T06:59:29.733Z,38.83
2019-02-04T07:02:01.043Z,39.13
2019-02-04T07:04:31.946Z,36.77
2019-02-04T07:07:02.876Z,38.87
2019-02-04T07:09:33.916Z,39.37
2019-02-04T07:12:04.831Z,33.40
2019-02-04T07:14:36.027Z,32.00
2019-02-04T07:17:07.364Z,43.67
2019-02-04T07:19:38.299Z,33.33
2019-02-04T07:22:09.673Z,34.30
2019-02-04T07:24:42.916Z,29.47
2019-02-04T07:27:13.615Z,30.90
2019-02-04T07:29:44.957Z,35.13
2019-02-04T07:32:15.936Z,35.50
2019-02-04T07:34:46.850Z,29.57
2019-02-04T07:37:18.139Z,33.47
2019-02-04T07:39:49.642Z,27.57
2019-02-04T07:42:20.652Z,28.20
2019-02-04T07:44:51.719Z,28.37
2019-02-04T07:47:22.979Z,27.93
2019-02-04T07:49:53.907Z,23.97
2019-02-04T07:52:25.289Z,26.20
2019-02-04T07:54:56.765Z,21.73
2019-02-04T07:57:27.684Z,21.20
2019-02-04T07:59:58.775Z,18.53
2019-02-04T08:02:30.376Z,28.40
2019-02-04T08:05:01.868Z,22.00
2019-02-04T08:07:33.163Z,25.53
2019-02-04T08:10:04.191Z,20.90
2019-02-04T08:12:35.160Z,21.83
2019-02-04T08:15:08.914Z,20.10
2019-02-04T08:17:40.198Z,18.70
2019-02-04T08:20:11.528Z,24.13
2019-02-04T08:22:42.564Z,18.07
2019-02-04T08:25:14.667Z,26.40
2019-02-04T08:27:45.689Z,20.60
2019-02-04T08:30:24.032Z,17.87
2019-02-04T08:32:55.055Z,17.80
2019-02-04T08:35:26.309Z,17.27
2019-02-04T08:37:57.513Z,18.57
2019-02-04T08:40:29.084Z,19.70
2019-02-04T08:43:00.137Z,16.20
2019-02-04T08:45:31.192Z,22.13
2019-02-04T08:48:02.162Z,15.87
2019-02-04T08:50:33.138Z,16.33
2019-02-04T08:53:04.151Z,17.37
2019-02-04T08:55:35.837Z,16.63
2019-02-04T08:58:07.371Z,16.50
2019-02-04T09:00:38.699Z,15.30
2019-02-04T09:03:09.962Z,20.97
2019-02-04T09:05:41.103Z,23.50
2019-02-04T09:08:12.170Z,17.90
2019-02-04T09:10:43.161Z,15.90
2019-02-04T09:13:14.146Z,26.53
2019-02-04T09:15:45.179Z,17.80
2019-02-04T09:18:16.465Z,19.87
2019-02-04T09:20:47.741Z,17.73
2019-02-04T09:23:18.955Z,16.40
2019-02-04T09:25:49.954Z,20.67
2019-02-04T09:28:20.921Z,20.00
2019-02-04T09:30:51.949Z,19.13
2019-02-04T09:33:22.905Z,16.03
2019-02-04T09:35:54.503Z,21.83
2019-02-04T09:38:25.886Z,17.80
2019-02-04T09:40:56.843Z,15.47
2019-02-04T09:43:27.756Z,19.33
2019-02-04T09:45:58.769Z,18.90
2019-02-04T09:48:29.847Z,20.10
2019-02-04T09:51:03.130Z,16.00
2019-02-04T09:53:34.442Z,20.07
2019-02-04T09:56:05.702Z,20.63
2019-02-04T09:58:36.674Z,22.33
2019-02-04T10:01:08.059Z,19.23
2019-02-04T10:03:39.028Z,17.77
2019-02-04T10:06:09.956Z,22.50
2019-02-04T10:08:40.963Z,18.10
2019-02-04T10:11:11.862Z,21.50
2019-02-04T10:13:43.159Z,17.83
2019-02-04T10:16:14.378Z,18.27
2019-02-04T10:18:45.321Z,21.73
2019-02-04T10:21:16.723Z,18.13
2019-02-04T10:23:47.708Z,18.80
2019-02-04T10:26:18.718Z,17.83
2019-02-04T10:28:50.044Z,26.10
2019-02-04T10:31:21.117Z,17.10
2019-02-04T10:33:52.051Z,19.63
2019-02-04T10:36:23.227Z,18.23
2019-02-04T10:38:54.146Z,20.30
2019-02-04T10:41:25.149Z,18.40
2019-02-04T10:43:56.177Z,20.23
2019-02-04T10:46:27.159Z,18.27
2019-02-04T10:48:58.110Z,18.07
2019-02-04T10:51:29.124Z,16.67
2019-02-04T10:54:00.114Z,27.00
2019-02-04T10:56:31.087Z,17.63
2019-02-04T10:59:02.176Z,19.50
2019-02-04T11:01:33.221Z,20.17
2019-02-04T11:04:04.103Z,20.60
2019-02-04T11:06:35.316Z,19.23
2019-02-04T11:09:09.604Z,19.43
2019-02-04T11:11:40.622Z,23.70
2019-02-04T11:14:15.567Z,16.17
2019-02-04T11:16:46.733Z,22.40
2019-02-04T11:19:18.091Z,19.53
2019-02-04T11:21:49.033Z,18.23
2019-02-04T11:24:20.169Z,22.40
2019-02-04T11:26:51.195Z,25.33
2019-02-04T11:29:22.176Z,16.47
2019-02-04T11:31:53.196Z,22.33
2019-02-04T11:34:24.356Z,19.47
2019-02-04T11:36:55.265Z,19.20
2019-02-04T11:39:26.375Z,20.33
2019-02-04T11:41:57.612Z,19.43
2019-02-04T11:44:28.638Z,22.83
2019-02-04T11:46:59.641Z,21.67
2019-02-04T11:49:30.898Z,22.33
2019-02-04T11:52:01.880Z,23.53
2019-02-04T11:54:32.906Z,29.23
2019-02-04T11:57:03.831Z,23.80
2019-02-04T11:59:34.787Z,24.90
2019-02-04T12:02:06.319Z,22.60
2019-02-04T12:04:37.210Z,28.60
2019-02-04T12:07:08.207Z,27.30
2019-02-04T12:09:39.417Z,22.83
2019-02-04T12:12:10.619Z,24.40
2019-02-04T12:14:41.863Z,24.17
2019-02-04T12:17:12.864Z,26.10
2019-02-04T12:19:43.768Z,26.63
2019-02-04T12:22:15.341Z,24.30
2019-02-04T12:24:46.380Z,27.17
2019-02-04T12:27:17.261Z,25.70
2019-02-04T12:29:49.611Z,30.57
2019-02-04T12:32:20.962Z,29.07
2019-02-04T12:34:52.151Z,25.90
2019-02-04T12:37:23.124Z,27.57
2019-02-04T12:39:54.147Z,24.80
2019-02-04T12:42:25.461Z,27.30
2019-02-04T12:44:56.792Z,25.73
2019-02-04T12:47:28.242Z,31.00
2019-02-04T12:49:59.495Z,29.30
2019-02-04T12:52:30.485Z,29.33
2019-02-04T12:55:01.416Z,26.43
2019-02-04T12:57:32.382Z,22.03
2019-02-04T13:00:03.943Z,22.53
2019-02-04T13:02:35.019Z,21.90
2019-02-04T13:05:07.300Z,24.40
2019-02-04T13:07:38.262Z,22.93
2019-02-04T13:10:11.256Z,23.50
2019-02-04T13:12:42.560Z,24.33
2019-02-04T13:15:17.127Z,23.00
2019-02-04T13:17:48.316Z,21.33
2019-02-04T13:20:21.274Z,22.40
2019-02-04T13:22:52.362Z,20.20
2019-02-04T13:25:26.281Z,25.00
2019-02-04T13:27:57.346Z,23.00
2019-02-04T13:30:31.283Z,27.50
2019-02-04T13:33:02.544Z,22.87
2019-02-04T13:35:33.527Z,22.60
2019-02-04T13:38:05.284Z,25.03
2019-02-04T13:40:36.160Z,21.07
2019-02-04T13:43:07.679Z,21.63
2019-02-04T13:45:38.682Z,22.10
2019-02-04T13:48:09.777Z,25.43
2019-02-04T13:50:41.179Z,21.07
2019-02-04T13:53:12.764Z,17.77
2019-02-04T13:55:44.131Z,18.90
2019-02-04T13:58:15.117Z,19.93
2019-02-04T14:00:46.287Z,21.90
2019-02-04T14:03:18.021Z,17.20
2019-02-04T14:05:49.134Z,20.70
2019-02-04T14:08:20.166Z,16.33
2019-02-04T14:10:51.122Z,20.63
2019-02-04T14:13:22.198Z,15.93
2019-02-04T14:15:53.281Z,18.70
2019-02-04T14:18:26.485Z,16.87
2019-02-04T14:20:57.218Z,19.83
2019-02-04T14:23:28.150Z,18.60
2019-02-04T14:25:59.510Z,15.60
2019-02-04T14:28:31.525Z,19.07
2019-02-04T14:31:02.563Z,17.83
2019-02-04T14:33:33.483Z,17.87
2019-02-04T14:36:04.543Z,17.50
2019-02-04T14:38:35.903Z,18.90
2019-02-04T14:41:06.979Z,20.17
2019-02-04T14:44:05.514Z,20.37
2019-02-04T14:46:50.320Z,21.83
2019-02-04T14:50:22.529Z,19.97
2019-02-04T14:53:37.472Z,16.77
2019-02-04T14:56:28.322Z,14.80
2019-02-04T14:59:56.869Z,19.00
2019-02-04T15:03:36.467Z,17.03
2019-02-04T15:07:04.728Z,13.33
2019-02-04T15:10:05.348Z,14.50
2019-02-04T15:13:30.619Z,14.67
2019-02-04T15:16:40.564Z,14.67
2019-02-04T15:20:29.222Z,17.30
2019-02-04T15:24:08.778Z,15.20
2019-02-04T15:27:23.742Z,14.90
2019-02-04T15:30:29.902Z,13.97
2019-02-04T15:34:00.921Z,14.17
2019-02-04T15:37:11.864Z,15.50
2019-02-04T15:40:37.143Z,17.77
2019-02-04T15:44:06.660Z,13.20
2019-02-04T15:46:53.895Z,20.53
2019-02-04T15:50:07.914Z,12.40
2019-02-04T15:52:45.668Z,17.10
2019-02-04T15:55:16.376Z,14.07
2019-02-04T15:57:47.340Z,16.53
2019-02-04T16:00:18.763Z,14.73
2019-02-04T16:02:49.728Z,16.80
2019-02-04T16:05:21.175Z,13.10
2019-02-04T16:07:54.946Z,15.83
2019-02-04T16:10:25.966Z,14.77
2019-02-04T16:12:57.034Z,16.00
2019-02-04T16:15:28.034Z,17.60
2019-02-04T16:17:59.091Z,14.10
2019-02-04T16:20:30.103Z,15.40
2019-02-04T16:23:01.042Z,14.60
2019-02-04T16:25:32.200Z,14.80
2019-02-04T16:28:03.467Z,12.83
2019-02-04T16:30:34.843Z,12.67
2019-02-04T16:33:06.375Z,14.50
2019-02-04T16:35:37.355Z,14.83
2019-02-04T16:38:08.920Z,12.57
2019-02-04T16:40:39.861Z,15.27
2019-02-04T16:43:10.737Z,14.93
2019-02-04T16:45:41.923Z,11.37
2019-02-04T16:48:12.998Z,12.13
2019-02-04T16:50:44.214Z,11.23
2019-02-04T16:53:15.189Z,13.47
2019-02-04T16:55:46.180Z,12.93
2019-02-04T16:58:17.074Z,12.87
2019-02-04T17:00:48.107Z,18.60
2019-02-04T17:03:19.097Z,10.87
2019-02-04T17:05:50.495Z,16.87
2019-02-04T17:08:21.561Z,15.83
2019-02-04T17:10:52.764Z,23.13
2019-02-04T17:13:23.690Z,16.73
2019-02-04T17:15:55.239Z,13.70
2019-02-04T17:18:26.284Z,12.13
2019-02-04T17:20:57.634Z,17.17
2019-02-04T17:23:28.940Z,11.77
2019-02-04T17:25:59.928Z,14.27
2019-02-04T17:28:30.933Z,17.10
2019-02-04T17:31:01.881Z,12.37
2019-02-04T17:33:33.703Z,14.40
2019-02-04T17:36:05.519Z,17.00
2019-02-04T17:38:36.922Z,13.20
2019-02-04T17:41:11.185Z,23.83
2019-02-04T17:43:42.228Z,15.30
2019-02-04T17:46:13.171Z,12.57
2019-02-04T17:48:44.450Z,13.07
2019-02-04T17:51:15.426Z,14.67
2019-02-04T17:53:47.343Z,12.97
2019-02-04T17:56:19.046Z,13.60
2019-02-04T17:58:52.110Z,15.33
2019-02-04T18:01:23.831Z,14.47
2019-02-04T18:03:55.150Z,14.30
2019-02-04T18:06:26.576Z,12.50
2019-02-04T18:08:57.740Z,14.20
2019-02-04T18:11:28.707Z,14.20
2019-02-04T18:14:00.328Z,16.77
2019-02-04T18:16:31.397Z,14.10
2019-02-04T18:19:02.517Z,19.77
2019-02-04T18:21:34.869Z,18.17
2019-02-04T18:24:07.995Z,19.47
2019-02-04T18:26:41.183Z,15.70
2019-02-04T18:29:12.993Z,14.23
2019-02-04T18:31:44.857Z,12.67
2019-02-04T18:34:18.456Z,16.07
2019-02-04T18:36:49.363Z,14.03
2019-02-04T18:39:20.636Z,14.10
2019-02-04T18:41:55.596Z,17.33
2019-02-04T18:44:25.668Z,17.50
2019-02-04T18:46:57.247Z,16.93
2019-02-04T18:49:31.022Z,17.80
2019-02-04T18:52:02.004Z,9.60
2019-02-04T18:54:35.633Z,13.60
2019-02-04T18:57:08.669Z,15.60
2019-02-04T18:59:39.875Z,11.50
2019-02-04T19:02:12.959Z,17.83
2019-02-04T19:04:44.235Z,19.23
2019-02-04T19:07:15.210Z,10.90
2019-02-04T19:09:46.583Z,11.70
2019-02-04T19:12:17.812Z,15.27
2019-02-04T19:14:54.759Z,13.67
2019-02-04T19:17:26.384Z,12.93
2019-02-04T19:19:59.099Z,15.57
2019-02-04T19:22:31.409Z,14.10
2019-02-04T19:25:03.614Z,12.93
2019-02-04T19:27:34.612Z,10.93
2019-02-04T19:30:13.421Z,9.83
2019-02-04T19:32:44.743Z,12.90
2019-02-04T19:35:31.022Z,13.10
2019-02-04T19:38:02.844Z,9.30
2019-02-04T19:40:33.882Z,11.20
2019-02-04T19:43:06.402Z,11.83
2019-02-04T19:45:38.850Z,16.60
2019-02-04T19:48:10.677Z,13.70
2019-02-04T19:50:42.182Z,11.20
2019-02-04T19:53:14.029Z,14.83
2019-02-04T19:55:45.346Z,19.17
2019-02-04T19:58:16.651Z,10.97
2019-02-04T20:00:48.524Z,12.30
2019-02-04T20:03:21.782Z,12.03
2019-02-04T20:05:52.999Z,14.90
2019-02-04T20:08:24.087Z,12.60
2019-02-04T20:10:55.912Z,14.03
2019-02-04T20:13:27.038Z,13.43
2019-02-04T20:15:58.239Z,15.80
2019-02-04T20:18:29.644Z,12.07
2019-02-04T20:21:00.788Z,18.17
2019-02-04T20:23:32.074Z,18.53
2019-02-04T20:26:03.392Z,18.27
2019-02-04T20:28:34.300Z,18.77
2019-02-04T20:31:07.272Z,14.67
2019-02-04T20:34:16.672Z,15.20
2019-02-04T20:36:48.338Z,13.80
2019-02-04T20:39:19.677Z,14.90
2019-02-04T20:41:53.130Z,11.73
2019-02-04T20:44:24.136Z,11.87
2019-02-04T20:46:55.678Z,16.50
2019-02-04T20:49:26.788Z,17.07
2019-02-04T20:51:57.850Z,13.93
2019-02-04T20:54:29.171Z,12.20
2019-02-04T20:57:00.659Z,15.80
2019-02-04T20:59:31.906Z,15.90
2019-02-04T21:02:03.538Z,13.63
2019-02-04T21:04:34.533Z,15.77
2019-02-04T21:07:05.714Z,12.07
2019-02-04T21:09:36.722Z,13.27
2019-02-04T21:12:09.582Z,17.20
2019-02-04T21:14:40.587Z,15.20
2019-02-04T21:17:11.576Z,15.83
2019-02-04T21:19:44.178Z,15.37
2019-02-04T21:22:16.276Z,11.00
2019-02-04T21:24:56.305Z,13.87
2019-02-04T21:27:19.883Z,11.80
2019-02-04T21:29:51.461Z,15.33
2019-02-04T21:32:22.841Z,15.27
2019-02-04T21:34:55.883Z,18.53
2019-02-04T21:37:26.996Z,13.80
2019-02-04T21:39:58.262Z,12.10
2019-02-04T21:42:29.166Z,13.50
2019-02-04T21:45:00.339Z,14.57
2019-02-04T21:47:31.398Z,14.97
2019-02-04T21:50:02.421Z,13.93
2019-02-04T21:52:35.975Z,12.07
2019-02-04T21:55:08.955Z,14.10
2019-02-04T21:57:39.886Z,16.63
2019-02-04T22:00:16.242Z,17.53
2019-02-04T22:02:47.573Z,17.53
2019-02-04T22:05:19.616Z,11.13
2019-02-04T22:07:50.656Z,11.27
2019-02-04T22:10:23.912Z,12.27
2019-02-04T22:12:55.248Z,12.90
2019-02-04T22:15:26.265Z,14.20
2019-02-04T22:17:57.561Z,13.83
2019-02-04T22:20:28.698Z,16.43
2019-02-04T22:22:59.779Z,10.60
2019-02-04T22:25:30.798Z,13.53
2019-02-04T22:28:01.763Z,10.33
2019-02-04T22:30:32.746Z,9.97
2019-02-04T22:33:04.070Z,11.47
2019-02-04T22:35:35.081Z,8.30
2019-02-04T22:38:06.608Z,9.60
2019-02-04T22:40:38.177Z,11.33
2019-02-04T22:43:09.150Z,10.87
2019-02-04T22:45:40.152Z,10.90
2019-02-04T22:48:11.065Z,12.90
2019-02-04T22:50:42.506Z,12.57
2019-02-04T22:53:13.504Z,18.10
2019-02-04T22:55:44.419Z,12.70
2019-02-04T22:58:15.778Z,10.73
2019-02-04T23:01:29.333Z,9.97
2019-02-04T23:04:00.327Z,9.67
2019-02-04T23:06:31.616Z,11.03
2019-02-04T23:09:03.892Z,10.40
2019-02-04T23:11:34.933Z,10.20
2019-02-04T23:14:06.737Z,11.37
2019-02-04T23:16:38.071Z,12.90
2019-02-04T23:19:09.849Z,8.50
2019-02-04T23:21:41.220Z,10.20
2019-02-04T23:24:12.314Z,9.97
2019-02-04T23:26:43.427Z,8.90
2019-02-04T23:29:14.322Z,9.27
2019-02-04T23:31:45.266Z,9.40
2019-02-04T23:34:16.555Z,12.03
2019-02-04T23:36:47.841Z,9.60
2019-02-04T23:39:19.148Z,10.80
2019-02-04T23:41:50.160Z,9.80
2019-02-04T23:44:21.249Z,10.47
2019-02-04T23:46:52.556Z,11.43
2019-02-04T23:49:23.594Z,11.67
2019-02-04T23:51:54.603Z,11.00
2019-02-04T23:54:25.951Z,9.80
2019-02-04T23:56:56.913Z,12.97
2019-02-04T23:59:28.207Z,11.43
